sensor_id;sensor_type;location;lat;lon;timestamp;P1;P2;P0
36453;PMS5003;22478;51.740;-1.314;2023-01-29T00:00:08;122;104;
36453;PMS5003;22478;51.740;-1.314;2023-01-29T00:02:35;115;100;
36453;PMS5003;22478;51.740;-1.314;2023-01-29T00:05:04;81;71;
36453;PMS5003;22478;51.740;-1.314;2023-01-29T00:07:32;69;61;
36453;PMS5003;22478;51.740;-1.314;2023-01-29T00:09:59;84;76;
36453;PMS5003;22478;51.740;-1.314;2023-01-29T00:12:26;71;67;
36453;PMS5003;22478;51.740;-1.314;2023-01-29T00:14:53;123;108;
36453;PMS5003;22478;51.740;-1.314;2023-01-29T00:17:20;209;203;
36453;PMS5003;22478;51.740;-1.314;2023-01-29T00:19:47;237;232;
36453;PMS5003;22478;51.740;-1.314;2023-01-29T00:22:15;143;126;
36453;PMS5003;22478;51.740;-1.314;2023-01-29T00:24:42;187;183;
36453;PMS5003;22478;51.740;-1.314;2023-01-29T00:27:10;263;259;
36453;PMS5003;22478;51.740;-1.314;2023-01-29T00:29:37;109;91;
36453;PMS5003;22478;51.740;-1.314;2023-01-29T00:32:04;99;89;
36453;PMS5003;22478;51.740;-1.314;2023-01-29T00:34:31;124;119;
36453;PMS5003;22478;51.740;-1.314;2023-01-29T00:36:58;262;257;
36453;PMS5003;22478;51.740;-1.314;2023-01-29T00:39:25;214;205;
36453;PMS5003;22478;51.740;-1.314;2023-01-29T00:41:53;305;299;
36453;PMS5003;22478;51.740;-1.314;2023-01-29T00:44:19;297;292;
36453;PMS5003;22478;51.740;-1.314;2023-01-29T00:46:47;283;277;
36453;PMS5003;22478;51.740;-1.314;2023-01-29T00:49:14;334;330;
36453;PMS5003;22478;51.740;-1.314;2023-01-29T00:51:41;179;162;
36453;PMS5003;22478;51.740;-1.314;2023-01-29T00:54:09;165;154;
36453;PMS5003;22478;51.740;-1.314;2023-01-29T00:56:36;231;224;
36453;PMS5003;22478;51.740;-1.314;2023-01-29T00:59:04;120;102;
36453;PMS5003;22478;51.740;-1.314;2023-01-29T01:01:31;99;87;
36453;PMS5003;22478;51.740;-1.314;2023-01-29T01:03:59;105;95;
36453;PMS5003;22478;51.740;-1.314;2023-01-29T01:06:26;86;81;
36453;PMS5003;22478;51.740;-1.314;2023-01-29T01:08:53;129;123;
36453;PMS5003;22478;51.740;-1.314;2023-01-29T01:11:20;107;88;
36453;PMS5003;22478;51.740;-1.314;2023-01-29T01:13:48;113;99;
36453;PMS5003;22478;51.740;-1.314;2023-01-29T01:16:16;113;97;
36453;PMS5003;22478;51.740;-1.314;2023-01-29T01:18:43;115;100;
36453;PMS5003;22478;51.740;-1.314;2023-01-29T01:21:11;112;98;
36453;PMS5003;22478;51.740;-1.314;2023-01-29T01:23:38;178;169;
36453;PMS5003;22478;51.740;-1.314;2023-01-29T01:26:07;206;198;
36453;PMS5003;22478;51.740;-1.314;2023-01-29T01:28:35;180;170;
36453;PMS5003;22478;51.740;-1.314;2023-01-29T01:31:07;178;161;
36453;PMS5003;22478;51.740;-1.314;2023-01-29T01:33:35;161;148;
36453;PMS5003;22478;51.740;-1.314;2023-01-29T01:36:03;148;120;
36453;PMS5003;22478;51.740;-1.314;2023-01-29T01:38:32;188;175;
36453;PMS5003;22478;51.740;-1.314;2023-01-29T01:40:59;293;292;
36453;PMS5003;22478;51.740;-1.314;2023-01-29T01:43:27;297;290;
36453;PMS5003;22478;51.740;-1.314;2023-01-29T01:45:54;171;170;
36453;PMS5003;22478;51.740;-1.314;2023-01-29T01:48:22;238;228;
36453;PMS5003;22478;51.740;-1.314;2023-01-29T01:50:52;337;326;
36453;PMS5003;22478;51.740;-1.314;2023-01-29T01:53:25;200;193;
36453;PMS5003;22478;51.740;-1.314;2023-01-29T01:55:56;230;228;
36453;PMS5003;22478;51.740;-1.314;2023-01-29T01:58:28;326;325;
36453;PMS5003;22478;51.740;-1.314;2023-01-29T02:00:58;228;223;
36453;PMS5003;22478;51.740;-1.314;2023-01-29T02:03:26;232;222;
36453;PMS5003;22478;51.740;-1.314;2023-01-29T02:05:56;180;165;
36453;PMS5003;22478;51.740;-1.314;2023-01-29T02:08:26;260;255;
36453;PMS5003;22478;51.740;-1.314;2023-01-29T02:11:00;228;221;
36453;PMS5003;22478;51.740;-1.314;2023-01-29T02:13:27;214;211;
36453;PMS5003;22478;51.740;-1.314;2023-01-29T02:15:54;199;193;
36453;PMS5003;22478;51.740;-1.314;2023-01-29T02:18:21;206;199;
36453;PMS5003;22478;51.740;-1.314;2023-01-29T02:20:54;276;273;
36453;PMS5003;22478;51.740;-1.314;2023-01-29T02:23:52;205;201;
36453;PMS5003;22478;51.740;-1.314;2023-01-29T02:26:40;254;248;
36453;PMS5003;22478;51.740;-1.314;2023-01-29T02:29:17;178;178;
36453;PMS5003;22478;51.740;-1.314;2023-01-29T02:31:56;169;159;
36453;PMS5003;22478;51.740;-1.314;2023-01-29T02:34:34;232;224;
36453;PMS5003;22478;51.740;-1.314;2023-01-29T02:37:08;232;231;
36453;PMS5003;22478;51.740;-1.314;2023-01-29T02:39:39;191;190;
36453;PMS5003;22478;51.740;-1.314;2023-01-29T02:42:14;198;193;
36453;PMS5003;22478;51.740;-1.314;2023-01-29T02:44:50;200;195;
36453;PMS5003;22478;51.740;-1.314;2023-01-29T02:47:26;177;172;
36453;PMS5003;22478;51.740;-1.314;2023-01-29T02:49:59;202;201;
36453;PMS5003;22478;51.740;-1.314;2023-01-29T02:52:34;179;171;
36453;PMS5003;22478;51.740;-1.314;2023-01-29T02:55:06;166;164;
36453;PMS5003;22478;51.740;-1.314;2023-01-29T02:57:39;213;206;
36453;PMS5003;22478;51.740;-1.314;2023-01-29T03:00:11;175;172;
36453;PMS5003;22478;51.740;-1.314;2023-01-29T03:02:45;181;179;
36453;PMS5003;22478;51.740;-1.314;2023-01-29T03:05:20;195;190;
36453;PMS5003;22478;51.740;-1.314;2023-01-29T03:07:53;208;204;
36453;PMS5003;22478;51.740;-1.314;2023-01-29T03:10:28;241;240;
36453;PMS5003;22478;51.740;-1.314;2023-01-29T03:13:01;401;398;
36453;PMS5003;22478;51.740;-1.314;2023-01-29T03:15:35;324;320;
36453;PMS5003;22478;51.740;-1.314;2023-01-29T03:18:10;256;249;
36453;PMS5003;22478;51.740;-1.314;2023-01-29T03:20:41;177;167;
36453;PMS5003;22478;51.740;-1.314;2023-01-29T03:23:14;225;218;
36453;PMS5003;22478;51.740;-1.314;2023-01-29T03:25:47;255;253;
36453;PMS5003;22478;51.740;-1.314;2023-01-29T03:28:16;230;229;
36453;PMS5003;22478;51.740;-1.314;2023-01-29T03:30:46;207;202;
36453;PMS5003;22478;51.740;-1.314;2023-01-29T03:33:17;212;209;
36453;PMS5003;22478;51.740;-1.314;2023-01-29T03:35:50;222;216;
36453;PMS5003;22478;51.740;-1.314;2023-01-29T03:38:24;309;308;
36453;PMS5003;22478;51.740;-1.314;2023-01-29T03:40:51;298;296;
36453;PMS5003;22478;51.740;-1.314;2023-01-29T03:43:26;345;340;
36453;PMS5003;22478;51.740;-1.314;2023-01-29T03:46:02;451;445;
36453;PMS5003;22478;51.740;-1.314;2023-01-29T03:48:32;407;405;
36453;PMS5003;22478;51.740;-1.314;2023-01-29T03:51:08;342;338;
36453;PMS5003;22478;51.740;-1.314;2023-01-29T03:53:42;230;226;
36453;PMS5003;22478;51.740;-1.314;2023-01-29T03:56:17;225;217;
36453;PMS5003;22478;51.740;-1.314;2023-01-29T03:58:58;235;223;
36453;PMS5003;22478;51.740;-1.314;2023-01-29T04:01:29;291;285;
36453;PMS5003;22478;51.740;-1.314;2023-01-29T04:04:06;334;330;
36453;PMS5003;22478;51.740;-1.314;2023-01-29T04:06:39;347;344;
36453;PMS5003;22478;51.740;-1.314;2023-01-29T04:09:11;240;236;
36453;PMS5003;22478;51.740;-1.314;2023-01-29T04:11:44;248;244;
36453;PMS5003;22478;51.740;-1.314;2023-01-29T04:14:15;330;328;
36453;PMS5003;22478;51.740;-1.314;2023-01-29T04:16:44;219;212;
36453;PMS5003;22478;51.740;-1.314;2023-01-29T04:19:16;230;224;
36453;PMS5003;22478;51.740;-1.314;2023-01-29T04:21:43;336;335;
36453;PMS5003;22478;51.740;-1.314;2023-01-29T04:24:12;356;350;
36453;PMS5003;22478;51.740;-1.314;2023-01-29T04:26:45;260;253;
36453;PMS5003;22478;51.740;-1.314;2023-01-29T04:29:25;254;244;
36453;PMS5003;22478;51.740;-1.314;2023-01-29T04:32:01;365;363;
36453;PMS5003;22478;51.740;-1.314;2023-01-29T04:34:39;203;198;
36453;PMS5003;22478;51.740;-1.314;2023-01-29T04:37:15;255;250;
36453;PMS5003;22478;51.740;-1.314;2023-01-29T04:39:51;250;249;
36453;PMS5003;22478;51.740;-1.314;2023-01-29T04:42:28;263;261;
36453;PMS5003;22478;51.740;-1.314;2023-01-29T04:44:58;567;565;
36453;PMS5003;22478;51.740;-1.314;2023-01-29T04:47:31;223;216;
36453;PMS5003;22478;51.740;-1.314;2023-01-29T04:50:10;364;358;
36453;PMS5003;22478;51.740;-1.314;2023-01-29T04:52:43;268;256;
36453;PMS5003;22478;51.740;-1.314;2023-01-29T04:55:18;254;252;
36453;PMS5003;22478;51.740;-1.314;2023-01-29T04:57:53;151;134;
36453;PMS5003;22478;51.740;-1.314;2023-01-29T05:00:30;157;154;
36453;PMS5003;22478;51.740;-1.314;2023-01-29T05:03:00;182;181;
36453;PMS5003;22478;51.740;-1.314;2023-01-29T05:05:28;188;184;
36453;PMS5003;22478;51.740;-1.314;2023-01-29T05:07:56;187;176;
36453;PMS5003;22478;51.740;-1.314;2023-01-29T05:10:25;158;141;
36453;PMS5003;22478;51.740;-1.314;2023-01-29T05:12:58;141;119;
36453;PMS5003;22478;51.740;-1.314;2023-01-29T05:15:28;128;113;
36453;PMS5003;22478;51.740;-1.314;2023-01-29T05:18:01;113;99;
36453;PMS5003;22478;51.740;-1.314;2023-01-29T05:20:29;158;145;
36453;PMS5003;22478;51.740;-1.314;2023-01-29T05:22:59;97;81;
36453;PMS5003;22478;51.740;-1.314;2023-01-29T05:25:28;86;79;
36453;PMS5003;22478;51.740;-1.314;2023-01-29T05:27:57;97;85;
36453;PMS5003;22478;51.740;-1.314;2023-01-29T05:30:25;125;109;
36453;PMS5003;22478;51.740;-1.314;2023-01-29T05:32:53;118;109;
36453;PMS5003;22478;51.740;-1.314;2023-01-29T05:35:20;113;104;
36453;PMS5003;22478;51.740;-1.314;2023-01-29T05:37:48;212;204;
36453;PMS5003;22478;51.740;-1.314;2023-01-29T05:40:15;225;224;
36453;PMS5003;22478;51.740;-1.314;2023-01-29T05:42:43;140;130;
36453;PMS5003;22478;51.740;-1.314;2023-01-29T05:45:10;280;276;
36453;PMS5003;22478;51.740;-1.314;2023-01-29T05:47:38;294;288;
36453;PMS5003;22478;51.740;-1.314;2023-01-29T05:50:05;297;294;
36453;PMS5003;22478;51.740;-1.314;2023-01-29T05:52:33;341;339;
36453;PMS5003;22478;51.740;-1.314;2023-01-29T05:55:00;287;282;
36453;PMS5003;22478;51.740;-1.314;2023-01-29T05:57:28;310;306;
36453;PMS5003;22478;51.740;-1.314;2023-01-29T05:59:55;202;192;
36453;PMS5003;22478;51.740;-1.314;2023-01-29T06:02:23;174;164;
36453;PMS5003;22478;51.740;-1.314;2023-01-29T06:04:50;202;196;
36453;PMS5003;22478;51.740;-1.314;2023-01-29T06:07:17;450;444;
36453;PMS5003;22478;51.740;-1.314;2023-01-29T06:09:45;203;197;
36453;PMS5003;22478;51.740;-1.314;2023-01-29T06:12:13;242;238;
36453;PMS5003;22478;51.740;-1.314;2023-01-29T06:14:40;284;275;
36453;PMS5003;22478;51.740;-1.314;2023-01-29T06:17:07;211;211;
36453;PMS5003;22478;51.740;-1.314;2023-01-29T06:19:34;215;209;
36453;PMS5003;22478;51.740;-1.314;2023-01-29T06:22:02;239;224;
36453;PMS5003;22478;51.740;-1.314;2023-01-29T06:24:29;226;206;
36453;PMS5003;22478;51.740;-1.314;2023-01-29T06:26:57;228;218;
36453;PMS5003;22478;51.740;-1.314;2023-01-29T06:29:24;232;228;
36453;PMS5003;22478;51.740;-1.314;2023-01-29T06:31:51;202;193;
36453;PMS5003;22478;51.740;-1.314;2023-01-29T06:34:19;230;224;
36453;PMS5003;22478;51.740;-1.314;2023-01-29T06:36:46;227;220;
36453;PMS5003;22478;51.740;-1.314;2023-01-29T06:39:14;209;206;
36453;PMS5003;22478;51.740;-1.314;2023-01-29T06:41:41;209;204;
36453;PMS5003;22478;51.740;-1.314;2023-01-29T06:44:09;305;298;
36453;PMS5003;22478;51.740;-1.314;2023-01-29T06:46:36;202;194;
36453;PMS5003;22478;51.740;-1.314;2023-01-29T06:49:03;185;182;
36453;PMS5003;22478;51.740;-1.314;2023-01-29T06:51:31;191;183;
36453;PMS5003;22478;51.740;-1.314;2023-01-29T06:53:58;197;186;
36453;PMS5003;22478;51.740;-1.314;2023-01-29T06:56:25;197;186;
36453;PMS5003;22478;51.740;-1.314;2023-01-29T06:58:52;193;188;
36453;PMS5003;22478;51.740;-1.314;2023-01-29T07:01:20;193;186;
36453;PMS5003;22478;51.740;-1.314;2023-01-29T07:03:48;189;184;
36453;PMS5003;22478;51.740;-1.314;2023-01-29T07:06:15;195;183;
36453;PMS5003;22478;51.740;-1.314;2023-01-29T07:08:43;200;184;
36453;PMS5003;22478;51.740;-1.314;2023-01-29T07:11:10;194;176;
36453;PMS5003;22478;51.740;-1.314;2023-01-29T07:13:37;198;186;
36453;PMS5003;22478;51.740;-1.314;2023-01-29T07:16:05;185;174;
36453;PMS5003;22478;51.740;-1.314;2023-01-29T07:18:32;207;194;
36453;PMS5003;22478;51.740;-1.314;2023-01-29T07:21:02;216;211;
36453;PMS5003;22478;51.740;-1.314;2023-01-29T07:23:31;226;202;
36453;PMS5003;22478;51.740;-1.314;2023-01-29T07:25:59;205;189;
36453;PMS5003;22478;51.740;-1.314;2023-01-29T07:28:27;197;191;
36453;PMS5003;22478;51.740;-1.314;2023-01-29T07:30:56;204;198;
36453;PMS5003;22478;51.740;-1.314;2023-01-29T07:33:24;205;194;
36453;PMS5003;22478;51.740;-1.314;2023-01-29T07:35:51;195;189;
36453;PMS5003;22478;51.740;-1.314;2023-01-29T07:38:19;224;201;
36453;PMS5003;22478;51.740;-1.314;2023-01-29T07:40:47;186;182;
36453;PMS5003;22478;51.740;-1.314;2023-01-29T07:43:14;212;200;
36453;PMS5003;22478;51.740;-1.314;2023-01-29T07:45:41;219;202;
36453;PMS5003;22478;51.740;-1.314;2023-01-29T07:48:10;213;208;
36453;PMS5003;22478;51.740;-1.314;2023-01-29T07:50:38;215;209;
36453;PMS5003;22478;51.740;-1.314;2023-01-29T07:53:06;201;191;
36453;PMS5003;22478;51.740;-1.314;2023-01-29T07:55:37;190;187;
36453;PMS5003;22478;51.740;-1.314;2023-01-29T07:58:05;201;182;
36453;PMS5003;22478;51.740;-1.314;2023-01-29T08:00:32;198;190;
36453;PMS5003;22478;51.740;-1.314;2023-01-29T08:03:01;188;183;
36453;PMS5003;22478;51.740;-1.314;2023-01-29T08:05:29;199;187;
36453;PMS5003;22478;51.740;-1.314;2023-01-29T08:07:57;187;185;
36453;PMS5003;22478;51.740;-1.314;2023-01-29T08:10:25;214;208;
36453;PMS5003;22478;51.740;-1.314;2023-01-29T08:12:53;202;196;
36453;PMS5003;22478;51.740;-1.314;2023-01-29T08:15:21;209;201;
36453;PMS5003;22478;51.740;-1.314;2023-01-29T08:17:49;211;202;
36453;PMS5003;22478;51.740;-1.314;2023-01-29T08:20:17;209;203;
36453;PMS5003;22478;51.740;-1.314;2023-01-29T08:22:45;197;191;
36453;PMS5003;22478;51.740;-1.314;2023-01-29T08:25:12;213;206;
36453;PMS5003;22478;51.740;-1.314;2023-01-29T08:27:41;200;194;
36453;PMS5003;22478;51.740;-1.314;2023-01-29T08:30:09;214;198;
36453;PMS5003;22478;51.740;-1.314;2023-01-29T08:32:37;184;171;
36453;PMS5003;22478;51.740;-1.314;2023-01-29T08:35:04;210;201;
36453;PMS5003;22478;51.740;-1.314;2023-01-29T08:37:32;201;190;
36453;PMS5003;22478;51.740;-1.314;2023-01-29T08:39:59;194;190;
36453;PMS5003;22478;51.740;-1.314;2023-01-29T08:42:26;210;192;
36453;PMS5003;22478;51.740;-1.314;2023-01-29T08:44:53;180;172;
36453;PMS5003;22478;51.740;-1.314;2023-01-29T08:47:20;190;185;
36453;PMS5003;22478;51.740;-1.314;2023-01-29T08:49:47;193;184;
36453;PMS5003;22478;51.740;-1.314;2023-01-29T08:52:14;188;185;
36453;PMS5003;22478;51.740;-1.314;2023-01-29T08:54:42;187;182;
36453;PMS5003;22478;51.740;-1.314;2023-01-29T08:57:09;180;170;
36453;PMS5003;22478;51.740;-1.314;2023-01-29T08:59:37;195;182;
36453;PMS5003;22478;51.740;-1.314;2023-01-29T09:02:03;168;168;
36453;PMS5003;22478;51.740;-1.314;2023-01-29T09:04:31;195;186;
36453;PMS5003;22478;51.740;-1.314;2023-01-29T09:06:58;186;179;
36453;PMS5003;22478;51.740;-1.314;2023-01-29T09:09:26;191;188;
36453;PMS5003;22478;51.740;-1.314;2023-01-29T09:11:53;181;177;
36453;PMS5003;22478;51.740;-1.314;2023-01-29T09:14:20;186;181;
36453;PMS5003;22478;51.740;-1.314;2023-01-29T09:16:47;183;178;
36453;PMS5003;22478;51.740;-1.314;2023-01-29T09:19:15;181;178;
36453;PMS5003;22478;51.740;-1.314;2023-01-29T09:21:42;187;181;
36453;PMS5003;22478;51.740;-1.314;2023-01-29T09:24:08;182;177;
36453;PMS5003;22478;51.740;-1.314;2023-01-29T09:26:36;180;179;
36453;PMS5003;22478;51.740;-1.314;2023-01-29T09:29:04;193;185;
36453;PMS5003;22478;51.740;-1.314;2023-01-29T09:31:31;176;175;
36453;PMS5003;22478;51.740;-1.314;2023-01-29T09:33:58;184;178;
36453;PMS5003;22478;51.740;-1.314;2023-01-29T09:36:26;186;182;
36453;PMS5003;22478;51.740;-1.314;2023-01-29T09:38:53;183;177;
36453;PMS5003;22478;51.740;-1.314;2023-01-29T09:41:25;182;178;
36453;PMS5003;22478;51.740;-1.314;2023-01-29T09:44:08;178;176;
36453;PMS5003;22478;51.740;-1.314;2023-01-29T09:46:42;193;187;
36453;PMS5003;22478;51.740;-1.314;2023-01-29T09:49:14;178;176;
36453;PMS5003;22478;51.740;-1.314;2023-01-29T09:51:50;184;181;
36453;PMS5003;22478;51.740;-1.314;2023-01-29T09:54:22;177;174;
36453;PMS5003;22478;51.740;-1.314;2023-01-29T09:56:53;172;168;
36453;PMS5003;22478;51.740;-1.314;2023-01-29T09:59:23;170;170;
36453;PMS5003;22478;51.740;-1.314;2023-01-29T10:01:55;186;172;
36453;PMS5003;22478;51.740;-1.314;2023-01-29T10:04:43;173;171;
36453;PMS5003;22478;51.740;-1.314;2023-01-29T10:07:40;171;165;
36453;PMS5003;22478;51.740;-1.314;2023-01-29T10:10:21;165;160;
36453;PMS5003;22478;51.740;-1.314;2023-01-29T10:12:59;177;174;
36453;PMS5003;22478;51.740;-1.314;2023-01-29T10:15:36;170;170;
36453;PMS5003;22478;51.740;-1.314;2023-01-29T10:18:19;174;173;
36453;PMS5003;22478;51.740;-1.314;2023-01-29T10:21:11;168;166;
36453;PMS5003;22478;51.740;-1.314;2023-01-29T10:23:45;174;173;
36453;PMS5003;22478;51.740;-1.314;2023-01-29T10:26:17;172;172;
36453;PMS5003;22478;51.740;-1.314;2023-01-29T10:28:49;172;169;
36453;PMS5003;22478;51.740;-1.314;2023-01-29T10:31:21;173;170;
36453;PMS5003;22478;51.740;-1.314;2023-01-29T10:33:55;181;175;
36453;PMS5003;22478;51.740;-1.314;2023-01-29T10:36:27;174;171;
36453;PMS5003;22478;51.740;-1.314;2023-01-29T10:39:00;174;173;
36453;PMS5003;22478;51.740;-1.314;2023-01-29T10:41:47;170;168;
36453;PMS5003;22478;51.740;-1.314;2023-01-29T10:44:26;170;170;
36453;PMS5003;22478;51.740;-1.314;2023-01-29T10:47:06;177;174;
36453;PMS5003;22478;51.740;-1.314;2023-01-29T10:49:51;169;169;
36453;PMS5003;22478;51.740;-1.314;2023-01-29T10:52:32;176;172;
36453;PMS5003;22478;51.740;-1.314;2023-01-29T10:55:13;175;173;
36453;PMS5003;22478;51.740;-1.314;2023-01-29T10:57:51;179;177;
36453;PMS5003;22478;51.740;-1.314;2023-01-29T11:00:29;176;170;
36453;PMS5003;22478;51.740;-1.314;2023-01-29T11:03:10;175;173;
36453;PMS5003;22478;51.740;-1.314;2023-01-29T11:05:43;178;177;
36453;PMS5003;22478;51.740;-1.314;2023-01-29T11:08:18;171;171;
36453;PMS5003;22478;51.740;-1.314;2023-01-29T11:10:51;165;159;
36453;PMS5003;22478;51.740;-1.314;2023-01-29T11:13:28;175;172;
36453;PMS5003;22478;51.740;-1.314;2023-01-29T11:16:00;156;154;
36453;PMS5003;22478;51.740;-1.314;2023-01-29T11:18:33;159;159;
36453;PMS5003;22478;51.740;-1.314;2023-01-29T11:21:16;160;158;
36453;PMS5003;22478;51.740;-1.314;2023-01-29T11:23:44;160;160;
36453;PMS5003;22478;51.740;-1.314;2023-01-29T11:26:12;169;169;
36453;PMS5003;22478;51.740;-1.314;2023-01-29T11:28:44;170;167;
36453;PMS5003;22478;51.740;-1.314;2023-01-29T11:31:21;167;167;
36453;PMS5003;22478;51.740;-1.314;2023-01-29T11:33:51;174;174;
36453;PMS5003;22478;51.740;-1.314;2023-01-29T11:36:29;170;169;
36453;PMS5003;22478;51.740;-1.314;2023-01-29T11:39:17;149;148;
36453;PMS5003;22478;51.740;-1.314;2023-01-29T11:41:54;160;157;
36453;PMS5003;22478;51.740;-1.314;2023-01-29T11:44:27;169;168;
36453;PMS5003;22478;51.740;-1.314;2023-01-29T11:47:06;157;154;
36453;PMS5003;22478;51.740;-1.314;2023-01-29T11:49:38;160;156;
36453;PMS5003;22478;51.740;-1.314;2023-01-29T11:52:10;154;154;
36453;PMS5003;22478;51.740;-1.314;2023-01-29T11:54:43;160;158;
36453;PMS5003;22478;51.740;-1.314;2023-01-29T11:57:19;166;165;
36453;PMS5003;22478;51.740;-1.314;2023-01-29T11:59:52;176;175;
36453;PMS5003;22478;51.740;-1.314;2023-01-29T12:02:22;167;163;
36453;PMS5003;22478;51.740;-1.314;2023-01-29T12:04:55;160;160;
36453;PMS5003;22478;51.740;-1.314;2023-01-29T12:07:25;165;161;
36453;PMS5003;22478;51.740;-1.314;2023-01-29T12:09:55;172;168;
36453;PMS5003;22478;51.740;-1.314;2023-01-29T12:12:26;163;162;
36453;PMS5003;22478;51.740;-1.314;2023-01-29T12:15:05;160;159;
36453;PMS5003;22478;51.740;-1.314;2023-01-29T12:17:42;169;169;
36453;PMS5003;22478;51.740;-1.314;2023-01-29T12:20:16;160;157;
36453;PMS5003;22478;51.740;-1.314;2023-01-29T12:22:49;167;163;
36453;PMS5003;22478;51.740;-1.314;2023-01-29T12:25:25;174;173;
36453;PMS5003;22478;51.740;-1.314;2023-01-29T12:28:03;167;162;
36453;PMS5003;22478;51.740;-1.314;2023-01-29T12:30:42;167;167;
36453;PMS5003;22478;51.740;-1.314;2023-01-29T12:33:19;176;173;
36453;PMS5003;22478;51.740;-1.314;2023-01-29T12:35:55;176;172;
36453;PMS5003;22478;51.740;-1.314;2023-01-29T12:38:28;162;159;
36453;PMS5003;22478;51.740;-1.314;2023-01-29T12:40:56;166;164;
36453;PMS5003;22478;51.740;-1.314;2023-01-29T12:43:30;160;158;
36453;PMS5003;22478;51.740;-1.314;2023-01-29T12:46:02;161;158;
36453;PMS5003;22478;51.740;-1.314;2023-01-29T12:48:35;166;155;
36453;PMS5003;22478;51.740;-1.314;2023-01-29T12:51:10;156;153;
36453;PMS5003;22478;51.740;-1.314;2023-01-29T12:53:41;163;160;
36453;PMS5003;22478;51.740;-1.314;2023-01-29T12:56:15;163;163;
36453;PMS5003;22478;51.740;-1.314;2023-01-29T12:58:51;160;160;
36453;PMS5003;22478;51.740;-1.314;2023-01-29T13:01:22;162;160;
36453;PMS5003;22478;51.740;-1.314;2023-01-29T13:03:56;159;159;
36453;PMS5003;22478;51.740;-1.314;2023-01-29T13:06:29;169;160;
36453;PMS5003;22478;51.740;-1.314;2023-01-29T13:09:02;156;155;
36453;PMS5003;22478;51.740;-1.314;2023-01-29T13:11:35;156;156;
36453;PMS5003;22478;51.740;-1.314;2023-01-29T13:14:08;151;151;
36453;PMS5003;22478;51.740;-1.314;2023-01-29T13:16:44;155;152;
36453;PMS5003;22478;51.740;-1.314;2023-01-29T13:19:19;158;158;
36453;PMS5003;22478;51.740;-1.314;2023-01-29T13:21:53;157;157;
36453;PMS5003;22478;51.740;-1.314;2023-01-29T13:24:23;158;158;
36453;PMS5003;22478;51.740;-1.314;2023-01-29T13:26:52;149;147;
36453;PMS5003;22478;51.740;-1.314;2023-01-29T13:29:21;158;157;
36453;PMS5003;22478;51.740;-1.314;2023-01-29T13:31:50;152;152;
36453;PMS5003;22478;51.740;-1.314;2023-01-29T13:34:20;150;149;
36453;PMS5003;22478;51.740;-1.314;2023-01-29T13:36:50;163;154;
36453;PMS5003;22478;51.740;-1.314;2023-01-29T13:39:22;154;152;
36453;PMS5003;22478;51.740;-1.314;2023-01-29T13:41:52;150;149;
36453;PMS5003;22478;51.740;-1.314;2023-01-29T13:44:23;180;170;
36453;PMS5003;22478;51.740;-1.314;2023-01-29T13:46:53;156;151;
36453;PMS5003;22478;51.740;-1.314;2023-01-29T13:49:26;147;145;
36453;PMS5003;22478;51.740;-1.314;2023-01-29T13:51:58;144;140;
36453;PMS5003;22478;51.740;-1.314;2023-01-29T13:54:48;141;141;
36453;PMS5003;22478;51.740;-1.314;2023-01-29T13:57:32;146;140;
36453;PMS5003;22478;51.740;-1.314;2023-01-29T14:00:46;162;153;
36453;PMS5003;22478;51.740;-1.314;2023-01-29T14:03:49;153;153;
36453;PMS5003;22478;51.740;-1.314;2023-01-29T14:06:35;157;154;
36453;PMS5003;22478;51.740;-1.314;2023-01-29T14:09:28;152;149;
36453;PMS5003;22478;51.740;-1.314;2023-01-29T14:11:59;171;162;
36453;PMS5003;22478;51.740;-1.314;2023-01-29T14:15:32;143;141;
36453;PMS5003;22478;51.740;-1.314;2023-01-29T14:18:05;140;139;
36453;PMS5003;22478;51.740;-1.314;2023-01-29T14:20:51;179;167;
36453;PMS5003;22478;51.740;-1.314;2023-01-29T14:23:25;135;135;
36453;PMS5003;22478;51.740;-1.314;2023-01-29T14:25:59;152;145;
36453;PMS5003;22478;51.740;-1.314;2023-01-29T14:28:29;137;134;
36453;PMS5003;22478;51.740;-1.314;2023-01-29T14:31:00;137;127;
36453;PMS5003;22478;51.740;-1.314;2023-01-29T14:33:30;133;133;
36453;PMS5003;22478;51.740;-1.314;2023-01-29T14:36:03;138;130;
36453;PMS5003;22478;51.740;-1.314;2023-01-29T14:38:34;131;131;
36453;PMS5003;22478;51.740;-1.314;2023-01-29T14:41:02;149;144;
36453;PMS5003;22478;51.740;-1.314;2023-01-29T14:43:33;153;145;
36453;PMS5003;22478;51.740;-1.314;2023-01-29T14:46:39;149;149;
36453;PMS5003;22478;51.740;-1.314;2023-01-29T14:49:08;151;151;
36453;PMS5003;22478;51.740;-1.314;2023-01-29T14:51:37;141;134;
36453;PMS5003;22478;51.740;-1.314;2023-01-29T14:54:19;145;145;
36453;PMS5003;22478;51.740;-1.314;2023-01-29T14:56:56;148;142;
36453;PMS5003;22478;51.740;-1.314;2023-01-29T14:59:31;140;140;
36453;PMS5003;22478;51.740;-1.314;2023-01-29T15:02:04;150;149;
36453;PMS5003;22478;51.740;-1.314;2023-01-29T15:04:42;134;130;
36453;PMS5003;22478;51.740;-1.314;2023-01-29T15:07:17;129;120;
36453;PMS5003;22478;51.740;-1.314;2023-01-29T15:09:54;131;125;
36453;PMS5003;22478;51.740;-1.314;2023-01-29T15:12:26;142;140;
36453;PMS5003;22478;51.740;-1.314;2023-01-29T15:14:59;146;146;
36453;PMS5003;22478;51.740;-1.314;2023-01-29T15:17:35;149;145;
36453;PMS5003;22478;51.740;-1.314;2023-01-29T15:20:27;146;144;
36453;PMS5003;22478;51.740;-1.314;2023-01-29T15:22:56;158;152;
36453;PMS5003;22478;51.740;-1.314;2023-01-29T15:25:23;164;151;
36453;PMS5003;22478;51.740;-1.314;2023-01-29T15:27:57;149;148;
36453;PMS5003;22478;51.740;-1.314;2023-01-29T15:30:27;138;137;
36453;PMS5003;22478;51.740;-1.314;2023-01-29T15:32:57;136;136;
36453;PMS5003;22478;51.740;-1.314;2023-01-29T15:35:27;139;133;
36453;PMS5003;22478;51.740;-1.314;2023-01-29T15:37:57;138;137;
36453;PMS5003;22478;51.740;-1.314;2023-01-29T15:40:25;138;138;
36453;PMS5003;22478;51.740;-1.314;2023-01-29T15:42:52;141;141;
36453;PMS5003;22478;51.740;-1.314;2023-01-29T15:45:21;136;135;
36453;PMS5003;22478;51.740;-1.314;2023-01-29T15:47:49;135;135;
36453;PMS5003;22478;51.740;-1.314;2023-01-29T15:50:18;140;140;
36453;PMS5003;22478;51.740;-1.314;2023-01-29T15:52:47;153;147;
36453;PMS5003;22478;51.740;-1.314;2023-01-29T15:55:16;141;141;
36453;PMS5003;22478;51.740;-1.314;2023-01-29T15:57:46;154;150;
36453;PMS5003;22478;51.740;-1.314;2023-01-29T16:00:19;148;148;